sensor_id;sensor_type;location;lat;lon;timestamp;P1;durP1;ratioP1;P2;durP2;ratioP2
7340;SDS011;6870;50.944;6.932;2023-03-01T00:01:41;69.03;;;38.30;;
7340;SDS011;6870;50.944;6.932;2023-03-01T00:04:09;73.67;;;40.43;;
7340;SDS011;6870;50.944;6.932;2023-03-01T00:06:37;73.87;;;38.60;;
7340;SDS011;6870;50.944;6.932;2023-03-01T00:09:05;71.00;;;38.97;;
7340;SDS011;6870;50.944;6.932;2023-03-01T00:11:33;68.40;;;39.27;;
7340;SDS011;6870;50.944;6.932;2023-03-01T00:14:01;69.37;;;39.30;;
7340;SDS011;6870;50.944;6.932;2023-03-01T00:16:34;66.50;;;39.50;;
7340;SDS011;6870;50.944;6.932;2023-03-01T00:19:07;63.70;;;39.20;;
7340;SDS011;6870;50.944;6.932;2023-03-01T00:21:39;66.53;;;41.47;;
7340;SDS011;6870;50.944;6.932;2023-03-01T00:24:08;68.27;;;39.10;;
7340;SDS011;6870;50.944;6.932;2023-03-01T00:26:37;51.80;;;36.07;;
7340;SDS011;6870;50.944;6.932;2023-03-01T00:29:05;60.70;;;36.63;;
7340;SDS011;6870;50.944;6.932;2023-03-01T00:31:34;65.00;;;38.57;;
7340;SDS011;6870;50.944;6.932;2023-03-01T00:34:03;63.90;;;38.10;;
7340;SDS011;6870;50.944;6.932;2023-03-01T00:36:34;61.00;;;35.97;;
7340;SDS011;6870;50.944;6.932;2023-03-01T00:39:04;64.00;;;39.50;;
7340;SDS011;6870;50.944;6.932;2023-03-01T00:41:37;59.07;;;34.90;;
7340;SDS011;6870;50.944;6.932;2023-03-01T00:44:06;57.07;;;35.77;;
7340;SDS011;6870;50.944;6.932;2023-03-01T00:46:34;54.37;;;36.00;;
7340;SDS011;6870;50.944;6.932;2023-03-01T00:49:02;58.53;;;36.17;;
7340;SDS011;6870;50.944;6.932;2023-03-01T00:51:31;64.07;;;36.43;;
7340;SDS011;6870;50.944;6.932;2023-03-01T00:54:01;56.90;;;33.97;;
7340;SDS011;6870;50.944;6.932;2023-03-01T00:56:30;58.03;;;35.30;;
7340;SDS011;6870;50.944;6.932;2023-03-01T00:58:58;57.40;;;35.47;;
7340;SDS011;6870;50.944;6.932;2023-03-01T01:01:28;68.10;;;33.07;;
7340;SDS011;6870;50.944;6.932;2023-03-01T01:03:58;58.40;;;33.50;;
7340;SDS011;6870;50.944;6.932;2023-03-01T01:06:29;53.17;;;34.13;;
7340;SDS011;6870;50.944;6.932;2023-03-01T01:09:01;60.43;;;34.17;;
7340;SDS011;6870;50.944;6.932;2023-03-01T01:11:31;63.70;;;33.40;;
7340;SDS011;6870;50.944;6.932;2023-03-01T01:14:01;60.60;;;35.33;;
7340;SDS011;6870;50.944;6.932;2023-03-01T01:16:29;57.57;;;33.90;;
7340;SDS011;6870;50.944;6.932;2023-03-01T01:18:58;50.73;;;31.80;;
7340;SDS011;6870;50.944;6.932;2023-03-01T01:21:26;48.80;;;33.03;;
7340;SDS011;6870;50.944;6.932;2023-03-01T01:23:54;52.60;;;31.83;;
7340;SDS011;6870;50.944;6.932;2023-03-01T01:26:27;46.33;;;31.47;;
7340;SDS011;6870;50.944;6.932;2023-03-01T01:28:57;59.20;;;33.87;;
7340;SDS011;6870;50.944;6.932;2023-03-01T01:31:27;51.83;;;31.20;;
7340;SDS011;6870;50.944;6.932;2023-03-01T01:33:57;50.93;;;30.63;;
7340;SDS011;6870;50.944;6.932;2023-03-01T01:36:27;55.80;;;30.17;;
7340;SDS011;6870;50.944;6.932;2023-03-01T01:38:55;50.77;;;32.30;;
7340;SDS011;6870;50.944;6.932;2023-03-01T01:41:25;43.43;;;31.37;;
7340;SDS011;6870;50.944;6.932;2023-03-01T01:44:10;47.07;;;31.47;;
7340;SDS011;6870;50.944;6.932;2023-03-01T01:46:42;47.83;;;29.10;;
7340;SDS011;6870;50.944;6.932;2023-03-01T01:49:18;44.80;;;28.97;;
7340;SDS011;6870;50.944;6.932;2023-03-01T01:51:55;44.87;;;30.07;;
7340;SDS011;6870;50.944;6.932;2023-03-01T01:54:30;55.27;;;33.20;;
7340;SDS011;6870;50.944;6.932;2023-03-01T01:57:09;52.80;;;30.27;;
7340;SDS011;6870;50.944;6.932;2023-03-01T01:59:43;40.87;;;27.47;;
7340;SDS011;6870;50.944;6.932;2023-03-01T02:02:15;42.00;;;27.63;;
7340;SDS011;6870;50.944;6.932;2023-03-01T02:04:44;47.87;;;29.40;;
7340;SDS011;6870;50.944;6.932;2023-03-01T02:07:14;42.07;;;27.10;;
7340;SDS011;6870;50.944;6.932;2023-03-01T02:09:46;45.63;;;27.07;;
7340;SDS011;6870;50.944;6.932;2023-03-01T02:12:17;49.50;;;26.27;;
7340;SDS011;6870;50.944;6.932;2023-03-01T02:14:49;44.37;;;29.90;;
7340;SDS011;6870;50.944;6.932;2023-03-01T02:17:17;50.20;;;29.33;;
7340;SDS011;6870;50.944;6.932;2023-03-01T02:19:49;45.87;;;27.70;;
7340;SDS011;6870;50.944;6.932;2023-03-01T02:22:36;47.83;;;26.80;;
7340;SDS011;6870;50.944;6.932;2023-03-01T02:25:07;39.97;;;25.57;;
7340;SDS011;6870;50.944;6.932;2023-03-01T02:27:51;42.27;;;27.77;;
7340;SDS011;6870;50.944;6.932;2023-03-01T02:30:28;46.63;;;27.73;;
7340;SDS011;6870;50.944;6.932;2023-03-01T02:32:58;47.10;;;25.87;;
7340;SDS011;6870;50.944;6.932;2023-03-01T02:35:29;35.87;;;25.00;;
7340;SDS011;6870;50.944;6.932;2023-03-01T02:38:01;42.93;;;25.10;;
7340;SDS011;6870;50.944;6.932;2023-03-01T02:40:30;42.67;;;26.27;;
7340;SDS011;6870;50.944;6.932;2023-03-01T02:43:01;42.50;;;25.70;;
7340;SDS011;6870;50.944;6.932;2023-03-01T02:45:35;38.07;;;26.73;;
7340;SDS011;6870;50.944;6.932;2023-03-01T02:48:03;43.33;;;26.00;;
7340;SDS011;6870;50.944;6.932;2023-03-01T02:50:41;41.53;;;26.00;;
7340;SDS011;6870;50.944;6.932;2023-03-01T02:53:21;42.77;;;24.97;;
7340;SDS011;6870;50.944;6.932;2023-03-01T02:55:55;45.43;;;25.40;;
7340;SDS011;6870;50.944;6.932;2023-03-01T02:58:24;36.17;;;22.37;;
7340;SDS011;6870;50.944;6.932;2023-03-01T03:00:53;36.50;;;24.00;;
7340;SDS011;6870;50.944;6.932;2023-03-01T03:03:22;40.93;;;25.07;;
7340;SDS011;6870;50.944;6.932;2023-03-01T03:05:50;44.30;;;26.20;;
7340;SDS011;6870;50.944;6.932;2023-03-01T03:08:18;37.47;;;23.93;;
7340;SDS011;6870;50.944;6.932;2023-03-01T03:10:50;36.60;;;23.03;;
7340;SDS011;6870;50.944;6.932;2023-03-01T03:13:19;42.47;;;24.03;;
7340;SDS011;6870;50.944;6.932;2023-03-01T03:15:48;40.03;;;24.40;;
7340;SDS011;6870;50.944;6.932;2023-03-01T03:18:17;35.27;;;23.20;;
7340;SDS011;6870;50.944;6.932;2023-03-01T03:20:46;34.73;;;24.50;;
7340;SDS011;6870;50.944;6.932;2023-03-01T03:23:18;33.40;;;23.10;;
7340;SDS011;6870;50.944;6.932;2023-03-01T03:25:47;38.33;;;26.37;;
7340;SDS011;6870;50.944;6.932;2023-03-01T03:28:16;36.87;;;23.43;;
7340;SDS011;6870;50.944;6.932;2023-03-01T03:30:45;39.13;;;23.03;;
7340;SDS011;6870;50.944;6.932;2023-03-01T03:33:14;36.40;;;24.20;;
7340;SDS011;6870;50.944;6.932;2023-03-01T03:35:43;33.70;;;22.90;;
7340;SDS011;6870;50.944;6.932;2023-03-01T03:38:15;33.10;;;23.27;;
7340;SDS011;6870;50.944;6.932;2023-03-01T03:40:46;39.23;;;24.10;;
7340;SDS011;6870;50.944;6.932;2023-03-01T03:43:16;36.70;;;23.07;;
7340;SDS011;6870;50.944;6.932;2023-03-01T03:45:47;33.40;;;22.53;;
7340;SDS011;6870;50.944;6.932;2023-03-01T03:48:18;33.63;;;20.67;;
7340;SDS011;6870;50.944;6.932;2023-03-01T03:50:49;34.70;;;22.70;;
7340;SDS011;6870;50.944;6.932;2023-03-01T03:53:19;31.77;;;21.33;;
7340;SDS011;6870;50.944;6.932;2023-03-01T03:55:48;32.67;;;20.77;;
7340;SDS011;6870;50.944;6.932;2023-03-01T03:58:17;36.70;;;21.83;;
7340;SDS011;6870;50.944;6.932;2023-03-01T04:00:49;30.33;;;19.80;;
7340;SDS011;6870;50.944;6.932;2023-03-01T04:03:19;29.20;;;21.30;;
7340;SDS011;6870;50.944;6.932;2023-03-01T04:05:50;30.70;;;19.07;;
7340;SDS011;6870;50.944;6.932;2023-03-01T04:08:19;34.03;;;22.20;;
7340;SDS011;6870;50.944;6.932;2023-03-01T04:10:49;31.90;;;21.20;;
7340;SDS011;6870;50.944;6.932;2023-03-01T04:13:20;29.13;;;19.00;;
7340;SDS011;6870;50.944;6.932;2023-03-01T04:15:51;28.37;;;18.90;;
7340;SDS011;6870;50.944;6.932;2023-03-01T04:18:23;35.50;;;22.23;;
7340;SDS011;6870;50.944;6.932;2023-03-01T04:20:53;34.50;;;20.97;;
7340;SDS011;6870;50.944;6.932;2023-03-01T04:23:22;30.97;;;20.50;;
7340;SDS011;6870;50.944;6.932;2023-03-01T04:25:51;30.90;;;20.13;;
7340;SDS011;6870;50.944;6.932;2023-03-01T04:28:21;28.30;;;19.40;;
7340;SDS011;6870;50.944;6.932;2023-03-01T04:30:51;33.93;;;18.93;;
7340;SDS011;6870;50.944;6.932;2023-03-01T04:33:20;27.83;;;18.80;;
7340;SDS011;6870;50.944;6.932;2023-03-01T04:35:49;28.60;;;17.50;;
7340;SDS011;6870;50.944;6.932;2023-03-01T04:38:19;29.77;;;19.30;;
7340;SDS011;6870;50.944;6.932;2023-03-01T04:40:48;33.70;;;20.90;;
7340;SDS011;6870;50.944;6.932;2023-03-01T04:43:16;27.63;;;19.53;;
7340;SDS011;6870;50.944;6.932;2023-03-01T04:45:44;36.60;;;19.10;;
7340;SDS011;6870;50.944;6.932;2023-03-01T04:48:12;26.67;;;19.60;;
7340;SDS011;6870;50.944;6.932;2023-03-01T04:50:40;34.40;;;21.00;;
7340;SDS011;6870;50.944;6.932;2023-03-01T04:53:08;26.63;;;17.73;;
7340;SDS011;6870;50.944;6.932;2023-03-01T04:55:37;27.87;;;17.40;;
7340;SDS011;6870;50.944;6.932;2023-03-01T04:58:05;30.97;;;18.70;;
7340;SDS011;6870;50.944;6.932;2023-03-01T05:00:33;26.23;;;18.43;;
7340;SDS011;6870;50.944;6.932;2023-03-01T05:03:01;28.93;;;17.80;;
7340;SDS011;6870;50.944;6.932;2023-03-01T05:05:30;29.27;;;17.90;;
7340;SDS011;6870;50.944;6.932;2023-03-01T05:08:00;25.60;;;17.00;;
7340;SDS011;6870;50.944;6.932;2023-03-01T05:10:32;22.60;;;16.80;;
7340;SDS011;6870;50.944;6.932;2023-03-01T05:13:04;27.13;;;17.80;;
7340;SDS011;6870;50.944;6.932;2023-03-01T05:15:32;31.13;;;17.73;;
7340;SDS011;6870;50.944;6.932;2023-03-01T05:18:02;24.10;;;16.97;;
7340;SDS011;6870;50.944;6.932;2023-03-01T05:20:33;26.07;;;18.57;;
7340;SDS011;6870;50.944;6.932;2023-03-01T05:23:02;31.93;;;18.93;;
7340;SDS011;6870;50.944;6.932;2023-03-01T05:25:32;27.17;;;16.80;;
7340;SDS011;6870;50.944;6.932;2023-03-01T05:28:07;28.17;;;17.07;;
7340;SDS011;6870;50.944;6.932;2023-03-01T05:30:39;28.87;;;17.80;;
7340;SDS011;6870;50.944;6.932;2023-03-01T05:33:08;29.17;;;16.87;;
7340;SDS011;6870;50.944;6.932;2023-03-01T05:35:39;27.93;;;16.30;;
7340;SDS011;6870;50.944;6.932;2023-03-01T05:38:08;29.07;;;16.90;;
7340;SDS011;6870;50.944;6.932;2023-03-01T05:40:39;24.90;;;15.27;;
7340;SDS011;6870;50.944;6.932;2023-03-01T05:43:10;20.07;;;14.03;;
7340;SDS011;6870;50.944;6.932;2023-03-01T05:45:38;13.90;;;9.63;;
7340;SDS011;6870;50.944;6.932;2023-03-01T05:48:07;13.47;;;8.33;;
7340;SDS011;6870;50.944;6.932;2023-03-01T05:50:38;9.00;;;7.73;;
7340;SDS011;6870;50.944;6.932;2023-03-01T05:53:08;9.97;;;6.70;;
7340;SDS011;6870;50.944;6.932;2023-03-01T05:55:38;10.80;;;6.57;;
7340;SDS011;6870;50.944;6.932;2023-03-01T05:58:09;36.00;;;15.37;;
7340;SDS011;6870;50.944;6.932;2023-03-01T06:00:41;15.60;;;8.73;;
7340;SDS011;6870;50.944;6.932;2023-03-01T06:03:11;21.00;;;8.70;;
7340;SDS011;6870;50.944;6.932;2023-03-01T06:05:42;15.23;;;8.20;;
7340;SDS011;6870;50.944;6.932;2023-03-01T06:08:11;18.37;;;8.73;;
7340;SDS011;6870;50.944;6.932;2023-03-01T06:10:40;15.90;;;7.13;;
7340;SDS011;6870;50.944;6.932;2023-03-01T06:13:08;16.03;;;7.57;;
7340;SDS011;6870;50.944;6.932;2023-03-01T06:15:37;16.73;;;6.57;;
7340;SDS011;6870;50.944;6.932;2023-03-01T06:18:05;12.50;;;7.13;;
7340;SDS011;6870;50.944;6.932;2023-03-01T06:20:33;9.20;;;6.13;;
7340;SDS011;6870;50.944;6.932;2023-03-01T06:23:01;13.90;;;6.70;;
7340;SDS011;6870;50.944;6.932;2023-03-01T06:25:30;21.20;;;6.60;;
7340;SDS011;6870;50.944;6.932;2023-03-01T06:27:59;12.87;;;5.80;;
7340;SDS011;6870;50.944;6.932;2023-03-01T06:30:28;11.33;;;6.40;;
7340;SDS011;6870;50.944;6.932;2023-03-01T06:32:56;12.53;;;5.70;;
7340;SDS011;6870;50.944;6.932;2023-03-01T06:35:27;7.93;;;5.43;;
7340;SDS011;6870;50.944;6.932;2023-03-01T06:37:57;8.50;;;5.60;;
7340;SDS011;6870;50.944;6.932;2023-03-01T06:40:26;10.90;;;5.20;;
7340;SDS011;6870;50.944;6.932;2023-03-01T06:42:54;10.00;;;4.90;;
7340;SDS011;6870;50.944;6.932;2023-03-01T06:45:23;14.63;;;5.67;;
7340;SDS011;6870;50.944;6.932;2023-03-01T06:47:57;10.93;;;5.63;;
7340;SDS011;6870;50.944;6.932;2023-03-01T06:50:30;13.20;;;6.27;;
7340;SDS011;6870;50.944;6.932;2023-03-01T06:52:59;9.20;;;5.50;;
7340;SDS011;6870;50.944;6.932;2023-03-01T06:55:27;8.30;;;4.80;;
7340;SDS011;6870;50.944;6.932;2023-03-01T06:57:55;8.97;;;4.73;;
7340;SDS011;6870;50.944;6.932;2023-03-01T07:00:24;12.00;;;5.37;;
7340;SDS011;6870;50.944;6.932;2023-03-01T07:02:54;10.80;;;4.80;;
7340;SDS011;6870;50.944;6.932;2023-03-01T07:05:28;11.20;;;4.70;;
7340;SDS011;6870;50.944;6.932;2023-03-01T07:07:56;7.70;;;4.63;;
7340;SDS011;6870;50.944;6.932;2023-03-01T07:10:24;7.90;;;3.90;;
7340;SDS011;6870;50.944;6.932;2023-03-01T07:12:54;14.53;;;6.03;;
7340;SDS011;6870;50.944;6.932;2023-03-01T07:15:23;9.93;;;4.63;;
7340;SDS011;6870;50.944;6.932;2023-03-01T07:17:52;5.70;;;3.60;;
7340;SDS011;6870;50.944;6.932;2023-03-01T07:20:21;5.27;;;3.73;;
7340;SDS011;6870;50.944;6.932;2023-03-01T07:22:51;7.53;;;4.17;;
7340;SDS011;6870;50.944;6.932;2023-03-01T07:25:19;6.87;;;4.13;;
7340;SDS011;6870;50.944;6.932;2023-03-01T07:27:49;6.53;;;3.70;;
7340;SDS011;6870;50.944;6.932;2023-03-01T07:30:18;5.67;;;3.70;;
7340;SDS011;6870;50.944;6.932;2023-03-01T07:32:47;6.20;;;4.10;;
7340;SDS011;6870;50.944;6.932;2023-03-01T07:35:15;8.40;;;3.93;;
7340;SDS011;6870;50.944;6.932;2023-03-01T07:37:45;5.30;;;3.90;;
7340;SDS011;6870;50.944;6.932;2023-03-01T07:40:13;5.60;;;3.67;;
7340;SDS011;6870;50.944;6.932;2023-03-01T07:42:41;7.07;;;3.27;;
7340;SDS011;6870;50.944;6.932;2023-03-01T07:45:09;5.77;;;4.00;;
7340;SDS011;6870;50.944;6.932;2023-03-01T07:47:39;7.73;;;3.80;;
7340;SDS011;6870;50.944;6.932;2023-03-01T07:50:08;5.50;;;4.10;;
7340;SDS011;6870;50.944;6.932;2023-03-01T07:52:37;7.67;;;3.90;;
7340;SDS011;6870;50.944;6.932;2023-03-01T07:55:07;7.20;;;4.03;;
7340;SDS011;6870;50.944;6.932;2023-03-01T07:57:36;7.67;;;3.20;;
7340;SDS011;6870;50.944;6.932;2023-03-01T08:00:04;7.20;;;3.80;;
7340;SDS011;6870;50.944;6.932;2023-03-01T08:02:35;7.87;;;3.50;;
7340;SDS011;6870;50.944;6.932;2023-03-01T08:05:04;6.63;;;3.60;;
7340;SDS011;6870;50.944;6.932;2023-03-01T08:07:32;4.90;;;3.97;;
7340;SDS011;6870;50.944;6.932;2023-03-01T08:10:00;7.30;;;3.53;;
7340;SDS011;6870;50.944;6.932;2023-03-01T08:12:30;8.80;;;3.73;;
7340;SDS011;6870;50.944;6.932;2023-03-01T08:14:58;6.93;;;3.57;;
7340;SDS011;6870;50.944;6.932;2023-03-01T08:17:26;7.00;;;3.00;;
7340;SDS011;6870;50.944;6.932;2023-03-01T08:19:54;6.93;;;3.40;;
7340;SDS011;6870;50.944;6.932;2023-03-01T08:22:22;7.33;;;3.70;;
7340;SDS011;6870;50.944;6.932;2023-03-01T08:24:51;6.50;;;4.40;;
7340;SDS011;6870;50.944;6.932;2023-03-01T08:27:19;4.83;;;2.77;;
7340;SDS011;6870;50.944;6.932;2023-03-01T08:29:48;4.70;;;2.97;;
7340;SDS011;6870;50.944;6.932;2023-03-01T08:32:16;7.83;;;4.33;;
7340;SDS011;6870;50.944;6.932;2023-03-01T08:34:45;8.10;;;3.80;;
7340;SDS011;6870;50.944;6.932;2023-03-01T08:37:14;6.40;;;3.83;;
7340;SDS011;6870;50.944;6.932;2023-03-01T08:39:42;8.70;;;3.60;;
7340;SDS011;6870;50.944;6.932;2023-03-01T08:42:10;8.63;;;3.93;;
7340;SDS011;6870;50.944;6.932;2023-03-01T08:44:38;5.53;;;3.30;;
7340;SDS011;6870;50.944;6.932;2023-03-01T08:47:07;12.93;;;9.67;;
7340;SDS011;6870;50.944;6.932;2023-03-01T08:49:35;5.67;;;4.90;;
7340;SDS011;6870;50.944;6.932;2023-03-01T08:52:04;6.30;;;5.70;;
7340;SDS011;6870;50.944;6.932;2023-03-01T08:54:32;8.67;;;5.07;;
7340;SDS011;6870;50.944;6.932;2023-03-01T08:57:01;7.83;;;5.40;;
7340;SDS011;6870;50.944;6.932;2023-03-01T08:59:29;6.03;;;3.80;;
7340;SDS011;6870;50.944;6.932;2023-03-01T09:02:01;8.20;;;4.33;;
7340;SDS011;6870;50.944;6.932;2023-03-01T09:04:31;7.87;;;4.30;;
7340;SDS011;6870;50.944;6.932;2023-03-01T09:06:59;4.67;;;3.20;;
7340;SDS011;6870;50.944;6.932;2023-03-01T09:09:28;5.03;;;3.20;;
7340;SDS011;6870;50.944;6.932;2023-03-01T09:11:56;4.37;;;3.60;;
7340;SDS011;6870;50.944;6.932;2023-03-01T09:14:24;6.10;;;4.38;;
7340;SDS011;6870;50.944;6.932;2023-03-01T09:16:52;10.10;;;8.80;;
7340;SDS011;6870;50.944;6.932;2023-03-01T09:19:20;9.47;;;8.53;;
7340;SDS011;6870;50.944;6.932;2023-03-01T09:21:51;9.90;;;8.90;;
7340;SDS011;6870;50.944;6.932;2023-03-01T09:24:20;9.70;;;8.30;;
7340;SDS011;6870;50.944;6.932;2023-03-01T09:26:52;12.00;;;7.90;;
7340;SDS011;6870;50.944;6.932;2023-03-01T09:29:22;8.50;;;5.40;;
7340;SDS011;6870;50.944;6.932;2023-03-01T09:31:50;7.60;;;4.30;;
7340;SDS011;6870;50.944;6.932;2023-03-01T09:34:21;4.93;;;3.67;;
7340;SDS011;6870;50.944;6.932;2023-03-01T09:36:51;6.13;;;4.47;;
7340;SDS011;6870;50.944;6.932;2023-03-01T09:39:19;4.93;;;4.07;;
7340;SDS011;6870;50.944;6.932;2023-03-01T09:41:49;6.80;;;3.97;;
7340;SDS011;6870;50.944;6.932;2023-03-01T09:44:27;7.43;;;4.47;;
7340;SDS011;6870;50.944;6.932;2023-03-01T09:47:00;4.77;;;3.37;;
7340;SDS011;6870;50.944;6.932;2023-03-01T09:49:30;4.40;;;3.67;;
7340;SDS011;6870;50.944;6.932;2023-03-01T09:52:06;4.50;;;3.50;;
7340;SDS011;6870;50.944;6.932;2023-03-01T09:54:47;4.53;;;2.77;;
7340;SDS011;6870;50.944;6.932;2023-03-01T09:57:26;4.40;;;3.20;;
7340;SDS011;6870;50.944;6.932;2023-03-01T10:00:07;4.07;;;3.60;;
7340;SDS011;6870;50.944;6.932;2023-03-01T10:03:08;5.23;;;3.40;;
7340;SDS011;6870;50.944;6.932;2023-03-01T10:05:47;4.50;;;3.23;;
7340;SDS011;6870;50.944;6.932;2023-03-01T10:08:27;10.80;;;4.00;;
7340;SDS011;6870;50.944;6.932;2023-03-01T10:11:02;4.77;;;3.10;;
7340;SDS011;6870;50.944;6.932;2023-03-01T10:13:45;3.73;;;3.10;;
7340;SDS011;6870;50.944;6.932;2023-03-01T10:16:21;4.40;;;3.10;;
7340;SDS011;6870;50.944;6.932;2023-03-01T10:18:58;3.93;;;2.70;;
7340;SDS011;6870;50.944;6.932;2023-03-01T10:21:30;3.37;;;3.07;;
7340;SDS011;6870;50.944;6.932;2023-03-01T10:24:10;5.03;;;3.23;;
7340;SDS011;6870;50.944;6.932;2023-03-01T10:26:47;4.60;;;3.27;;
7340;SDS011;6870;50.944;6.932;2023-03-01T10:29:23;4.93;;;2.80;;
7340;SDS011;6870;50.944;6.932;2023-03-01T10:31:54;5.07;;;3.60;;
7340;SDS011;6870;50.944;6.932;2023-03-01T10:34:26;4.53;;;2.87;;
7340;SDS011;6870;50.944;6.932;2023-03-01T10:36:57;7.20;;;2.90;;
7340;SDS011;6870;50.944;6.932;2023-03-01T10:39:33;6.30;;;2.93;;
7340;SDS011;6870;50.944;6.932;2023-03-01T10:42:02;3.10;;;2.47;;
7340;SDS011;6870;50.944;6.932;2023-03-01T10:44:37;4.07;;;3.30;;
7340;SDS011;6870;50.944;6.932;2023-03-01T10:47:15;4.50;;;3.27;;
7340;SDS011;6870;50.944;6.932;2023-03-01T10:49:55;3.90;;;2.73;;
7340;SDS011;6870;50.944;6.932;2023-03-01T10:52:27;3.97;;;2.77;;
7340;SDS011;6870;50.944;6.932;2023-03-01T10:55:01;4.33;;;2.80;;
7340;SDS011;6870;50.944;6.932;2023-03-01T10:57:44;5.60;;;2.60;;
7340;SDS011;6870;50.944;6.932;2023-03-01T11:00:17;5.00;;;3.13;;
7340;SDS011;6870;50.944;6.932;2023-03-01T11:02:51;3.67;;;2.83;;
7340;SDS011;6870;50.944;6.932;2023-03-01T11:05:37;3.87;;;3.10;;
7340;SDS011;6870;50.944;6.932;2023-03-01T11:08:29;5.50;;;3.30;;
7340;SDS011;6870;50.944;6.932;2023-03-01T11:13:50;3.63;;;2.60;;
7340;SDS011;6870;50.944;6.932;2023-03-01T11:16:23;4.00;;;2.90;;
7340;SDS011;6870;50.944;6.932;2023-03-01T11:19:14;3.13;;;2.50;;
7340;SDS011;6870;50.944;6.932;2023-03-01T11:21:49;4.33;;;3.17;;
7340;SDS011;6870;50.944;6.932;2023-03-01T11:24:31;4.50;;;3.20;;
7340;SDS011;6870;50.944;6.932;2023-03-01T11:27:13;5.90;;;2.83;;
7340;SDS011;6870;50.944;6.932;2023-03-01T11:29:46;4.50;;;3.03;;
7340;SDS011;6870;50.944;6.932;2023-03-01T11:32:20;5.10;;;3.00;;
7340;SDS011;6870;50.944;6.932;2023-03-01T11:34:55;5.80;;;3.00;;
7340;SDS011;6870;50.944;6.932;2023-03-01T11:37:30;7.00;;;3.37;;
7340;SDS011;6870;50.944;6.932;2023-03-01T11:40:06;3.77;;;2.77;;
7340;SDS011;6870;50.944;6.932;2023-03-01T11:42:52;3.60;;;3.13;;
7340;SDS011;6870;50.944;6.932;2023-03-01T11:45:37;2.87;;;2.57;;
7340;SDS011;6870;50.944;6.932;2023-03-01T11:48:24;4.13;;;2.90;;
7340;SDS011;6870;50.944;6.932;2023-03-01T11:51:17;3.83;;;2.93;;
7340;SDS011;6870;50.944;6.932;2023-03-01T11:54:04;4.30;;;2.77;;
7340;SDS011;6870;50.944;6.932;2023-03-01T11:56:43;4.03;;;2.90;;
7340;SDS011;6870;50.944;6.932;2023-03-01T12:08:37;4.60;;;3.30;;
7340;SDS011;6870;50.944;6.932;2023-03-01T12:11:12;3.93;;;2.60;;
7340;SDS011;6870;50.944;6.932;2023-03-01T12:13:59;4.50;;;3.17;;
7340;SDS011;6870;50.944;6.932;2023-03-01T12:16:47;3.80;;;2.90;;
7340;SDS011;6870;50.944;6.932;2023-03-01T12:19:31;3.50;;;2.20;;
7340;SDS011;6870;50.944;6.932;2023-03-01T12:22:17;3.87;;;2.73;;
7340;SDS011;6870;50.944;6.932;2023-03-01T12:25:03;6.63;;;3.00;;
7340;SDS011;6870;50.944;6.932;2023-03-01T12:27:53;3.37;;;2.60;;
7340;SDS011;6870;50.944;6.932;2023-03-01T12:30:39;2.67;;;2.30;;
7340;SDS011;6870;50.944;6.932;2023-03-01T12:33:28;3.73;;;2.90;;
7340;SDS011;6870;50.944;6.932;2023-03-01T12:36:10;3.83;;;2.37;;
7340;SDS011;6870;50.944;6.932;2023-03-01T12:39:01;3.80;;;2.50;;
7340;SDS011;6870;50.944;6.932;2023-03-01T12:41:49;3.87;;;3.00;;
7340;SDS011;6870;50.944;6.932;2023-03-01T12:44:32;2.43;;;2.23;;
7340;SDS011;6870;50.944;6.932;2023-03-01T12:47:36;2.60;;;2.23;;
7340;SDS011;6870;50.944;6.932;2023-03-01T12:50:20;3.97;;;2.70;;
7340;SDS011;6870;50.944;6.932;2023-03-01T12:52:54;3.23;;;2.90;;
7340;SDS011;6870;50.944;6.932;2023-03-01T12:55:26;4.07;;;2.80;;
7340;SDS011;6870;50.944;6.932;2023-03-01T12:58:04;4.10;;;2.40;;
7340;SDS011;6870;50.944;6.932;2023-03-01T13:00:41;2.97;;;1.97;;
7340;SDS011;6870;50.944;6.932;2023-03-01T13:03:31;3.07;;;2.70;;
7340;SDS011;6870;50.944;6.932;2023-03-01T13:06:12;2.93;;;2.63;;
7340;SDS011;6870;50.944;6.932;2023-03-01T13:08:48;2.83;;;2.40;;
7340;SDS011;6870;50.944;6.932;2023-03-01T13:11:22;3.07;;;2.60;;
7340;SDS011;6870;50.944;6.932;2023-03-01T13:13:50;4.23;;;2.80;;
7340;SDS011;6870;50.944;6.932;2023-03-01T13:16:38;4.10;;;2.37;;
7340;SDS011;6870;50.944;6.932;2023-03-01T13:19:12;4.00;;;2.97;;
7340;SDS011;6870;50.944;6.932;2023-03-01T13:21:45;2.90;;;2.30;;
7340;SDS011;6870;50.944;6.932;2023-03-01T13:24:29;4.23;;;2.80;;
7340;SDS011;6870;50.944;6.932;2023-03-01T13:27:10;3.60;;;2.40;;
7340;SDS011;6870;50.944;6.932;2023-03-01T13:29:55;2.73;;;2.30;;
7340;SDS011;6870;50.944;6.932;2023-03-01T13:32:26;2.80;;;2.43;;
7340;SDS011;6870;50.944;6.932;2023-03-01T13:35:41;4.03;;;2.33;;
7340;SDS011;6870;50.944;6.932;2023-03-01T13:41:13;2.43;;;2.20;;
7340;SDS011;6870;50.944;6.932;2023-03-01T13:43:43;2.90;;;2.50;;
7340;SDS011;6870;50.944;6.932;2023-03-01T13:46:15;3.83;;;2.07;;
7340;SDS011;6870;50.944;6.932;2023-03-01T13:48:50;2.87;;;2.13;;
7340;SDS011;6870;50.944;6.932;2023-03-01T13:51:21;2.60;;;1.90;;
7340;SDS011;6870;50.944;6.932;2023-03-01T13:53:55;2.90;;;2.20;;
7340;SDS011;6870;50.944;6.932;2023-03-01T13:56:25;3.93;;;2.57;;
7340;SDS011;6870;50.944;6.932;2023-03-01T13:58:58;4.30;;;2.90;;
7340;SDS011;6870;50.944;6.932;2023-03-01T14:01:30;7.57;;;2.30;;
7340;SDS011;6870;50.944;6.932;2023-03-01T14:04:02;3.27;;;2.07;;
7340;SDS011;6870;50.944;6.932;2023-03-01T14:06:42;3.40;;;2.77;;
7340;SDS011;6870;50.944;6.932;2023-03-01T14:09:14;3.63;;;2.67;;
7340;SDS011;6870;50.944;6.932;2023-03-01T14:11:50;9.70;;;2.43;;
7340;SDS011;6870;50.944;6.932;2023-03-01T14:14:37;5.30;;;3.07;;
7340;SDS011;6870;50.944;6.932;2023-03-01T14:17:25;8.13;;;3.50;;
7340;SDS011;6870;50.944;6.932;2023-03-01T14:20:20;6.50;;;3.30;;
7340;SDS011;6870;50.944;6.932;2023-03-01T14:22:51;7.00;;;2.70;;
7340;SDS011;6870;50.944;6.932;2023-03-01T14:25:27;4.00;;;2.83;;
7340;SDS011;6870;50.944;6.932;2023-03-01T14:28:03;10.87;;;3.00;;
7340;SDS011;6870;50.944;6.932;2023-03-01T14:30:42;3.50;;;2.70;;
7340;SDS011;6870;50.944;6.932;2023-03-01T14:33:18;3.40;;;2.27;;
7340;SDS011;6870;50.944;6.932;2023-03-01T14:35:53;6.17;;;2.60;;
7340;SDS011;6870;50.944;6.932;2023-03-01T14:38:29;6.30;;;2.43;;
7340;SDS011;6870;50.944;6.932;2023-03-01T14:41:02;4.57;;;2.63;;
7340;SDS011;6870;50.944;6.932;2023-03-01T14:43:36;3.37;;;2.70;;
7340;SDS011;6870;50.944;6.932;2023-03-01T14:46:06;5.00;;;2.60;;
7340;SDS011;6870;50.944;6.932;2023-03-01T14:48:49;4.00;;;2.90;;
7340;SDS011;6870;50.944;6.932;2023-03-01T14:51:18;3.80;;;2.70;;
7340;SDS011;6870;50.944;6.932;2023-03-01T14:53:47;8.47;;;3.17;;
7340;SDS011;6870;50.944;6.932;2023-03-01T14:56:18;4.47;;;2.70;;
7340;SDS011;6870;50.944;6.932;2023-03-01T14:58:46;2.00;;;1.80;;
7340;SDS011;6870;50.944;6.932;2023-03-01T15:01:19;4.47;;;2.97;;
7340;SDS011;6870;50.944;6.932;2023-03-01T15:03:48;4.80;;;2.83;;
7340;SDS011;6870;50.944;6.932;2023-03-01T15:06:19;4.63;;;2.80;;
7340;SDS011;6870;50.944;6.932;2023-03-01T15:08:49;2.50;;;2.10;;
7340;SDS011;6870;50.944;6.932;2023-03-01T15:11:22;4.23;;;2.23;;
7340;SDS011;6870;50.944;6.932;2023-03-01T15:13:52;4.33;;;2.80;;
7340;SDS011;6870;50.944;6.932;2023-03-01T15:16:21;6.37;;;2.70;;
7340;SDS011;6870;50.944;6.932;2023-03-01T15:18:53;5.17;;;2.47;;
7340;SDS011;6870;50.944;6.932;2023-03-01T15:21:24;4.47;;;2.47;;
7340;SDS011;6870;50.944;6.932;2023-03-01T15:23:55;4.80;;;2.50;;
7340;SDS011;6870;50.944;6.932;2023-03-01T15:26:29;2.50;;;2.30;;
7340;SDS011;6870;50.944;6.932;2023-03-01T15:29:00;2.97;;;2.17;;
7340;SDS011;6870;50.944;6.932;2023-03-01T15:31:29;2.67;;;1.93;;
7340;SDS011;6870;50.944;6.932;2023-03-01T15:34:08;3.70;;;2.60;;
7340;SDS011;6870;50.944;6.932;2023-03-01T15:36:46;3.67;;;2.17;;
7340;SDS011;6870;50.944;6.932;2023-03-01T15:45:21;2.30;;;1.90;;
7340;SDS011;6870;50.944;6.932;2023-03-01T15:47:53;4.03;;;2.78;;
7340;SDS011;6870;50.944;6.932;2023-03-01T15:50:25;2.40;;;2.13;;
7340;SDS011;6870;50.944;6.932;2023-03-01T15:52:56;2.83;;;2.20;;
7340;SDS011;6870;50.944;6.932;2023-03-01T15:55:26;4.00;;;2.30;;
7340;SDS011;6870;50.944;6.932;2023-03-01T15:57:57;5.27;;;2.20;;